Stockland, Illinois
Current Conditions -  °F | °C
As of 2:15 PM on Sunday 23 Nov 2014 (Local Time) from KDNV Reporting Station
Moderate Rain Moderate Rain  
Wind Chill: 51°   Ceiling: 300
Heat Index: 51°   Visibility: 3mi
Dew Point: 50°   Wind: 9mph
Humidity: 97%   Direction: 140°SE
Pressure: 29.5"   Gusts: NA
Location:  40.61°N, 87.59°W
Report Text: KDNV 232015Z AUTO 14008KT 3SM RA OVC003 11/10 A2950 RMK AO2 P0001 T01050101
Loading
Personal Weather Stations






























Interactive Weather Map New forecast layout! Learn more

10-Day Weather Forecast

Advertisements
Track Severe Weather on mobile